UNR Ag. Experiment Farm, Sparks, Nevada Weather observations

Data are for 10 minute period ending at time listed.
 Day   Time   Solar   Ave.   Ave.  Ave.  Vector  Max.   Baro.   Total    
  of    of     Rad.   Air    Rel.  Wind   Wind   Wind  Press.  Precip.   
Year   Day            Temp.  Hum.  Speed  Dir.   Gust                    
2017   (PST)  Kw/m2    F      %     mph   deg.    mph    mb.     in.     
-------------------------------------------------------------------------
 324   19:40   0.00   50.6    77    3.1   156     4.8   868.6    0.00 
 324   19:50   0.00   50.9    75    3.4   129     5.0   868.6    0.00 
 324   20:00   0.00   49.9    78    2.2   116     4.0   868.7    0.00 
 324   20:10   0.00   48.6    79    0.4   338     1.5   868.7    0.00 
 324   20:20   0.00   49.4    80    3.1   284     5.0   868.9    0.00 
 324   20:30   0.00   50.2    79    1.3   151     3.7   869.0    0.00 
 324   20:40   0.00   50.5    78    2.4   345     3.1   869.0    0.00 
 324   20:50   0.00   49.8    79    1.9   125     3.7   869.0    0.00 
 324   21:00   0.00   48.5    81    0.9   110     3.2   869.1    0.00 
 324   21:10   0.00   47.9    81    0.1   119     0.9   869.2    0.00 
 324   21:20   0.00   47.1    83    1.8   298     3.9   869.3    0.00 
 324   21:30   0.00   47.0    85    2.3   264     3.2   869.5    0.00 
 324   21:40   0.00   47.4    84    1.5   286     2.3   869.5    0.00 
 324   21:50   0.00   47.3    85    2.1     4     5.2   869.8    0.00 
 324   22:00   0.00   47.8    86    2.4   165     5.8   870.0    0.00 
 324   22:10   0.00   49.2    82    3.3   304     6.4   870.2    0.00 
 324   22:20   0.00   50.2    79    4.2   107     6.9   870.1    0.00 
 324   22:30   0.00   49.5    81    3.6   270     7.2   870.2    0.00 
 324   22:40   0.00   50.5    77    2.6   329     3.8   870.3    0.00 
 324   22:50   0.00   49.3    78    1.2   286     2.4   870.3    0.00 
 324   23:00   0.00   47.9    81    4.4   153     8.8   870.3    0.00 
 324   23:10   0.00   48.1    83    3.5   212     6.6   870.4    0.00 
 324   23:20   0.00   47.9    82    2.0   183     3.1   870.5    0.00 
 324   23:30   0.00   47.6    82    2.1   131     4.2   870.4    0.00 
 324   23:40   0.00   45.9    84    0.9   294     3.7   870.4    0.00 
 324   23:50   0.00   45.5    86    1.4    54     3.4   870.4    0.00 
 325    0:00   0.00   44.9    87    1.9    82     4.1   870.6    0.00 
 325    0:10   0.00   45.2    88    0.4    70     1.7   870.8    0.00 
 325    0:20   0.00   45.6    87    1.9   261     4.6   870.9    0.00 
 325    0:30   0.00   45.8    88    2.6   308     4.3   871.0    0.00 
 325    0:40   0.00   43.9    86    2.9   356     4.3   871.1    0.00 
 325    0:50   0.00   43.2    89    3.2    17     4.4   871.2    0.00 
 325    1:00   0.00   44.2    89    2.6    56     3.4   871.1    0.00 
 325    1:10   0.00   42.5    89    2.5   226     4.4   871.3    0.00 
 325    1:20   0.00   42.3    91    2.6   238     3.3   871.4    0.00 
 325    1:30   0.00   42.6    91    3.4   179     4.7   871.6    0.00 
 325    1:40   0.00   41.6    91    1.8   106     3.3   871.6    0.00 
 325    1:50   0.00   41.0    92    1.0   190     1.7   871.7    0.00 
 325    2:00   0.00   40.6    91    2.2   269     3.7   871.8    0.00 
 325    2:10   0.00   38.7    93    2.6    24     4.2   871.9    0.00 
 325    2:20   0.00   40.5    94    1.8    33     2.9   871.9    0.00 
 325    2:30   0.00   41.2    93    1.5   315     2.4   872.3    0.00 
 325    2:40   0.00   41.6    93    1.6   142     3.5   872.4    0.00 
 325    2:50   0.00   41.2    93    1.9   135     2.7   872.4    0.00 
 325    3:00   0.00   42.0    94    1.5   181     2.1   872.2    0.00 
 325    3:10   0.00   42.5    93    0.6   217     1.7   872.2    0.00 
 325    3:20   0.00   41.6    93    1.3   358     2.8   872.2    0.00 
 325    3:30   0.00   42.0    94    1.6    16     2.6   872.3    0.00 
 325    3:40   0.00   43.3    94    0.2     3     2.1   872.2    0.00 
 325    3:50   0.00   43.0    93    0.3   202     2.1   872.1    0.00 
 325    4:00   0.00   43.2    93    1.7   294     3.6   872.2    0.00 
 325    4:10   0.00   43.6    93    1.8   296     2.6   872.2    0.00 
 325    4:20   0.00   42.9    92    1.9    99     3.2   872.1    0.00 
 325    4:30   0.00   42.7    93    1.7   107     2.9   872.2    0.00 
 325    4:40   0.00   42.8    93    1.2   150     2.0   872.2    0.00 
 325    4:50   0.00   42.2    93    0.1    30     1.9   872.3    0.00 
 325    5:00   0.00   42.3    93    0.2    28     0.9   872.4    0.00 
 325    5:10   0.00   41.6    93    0.7    34     1.7   872.6    0.00 
 325    5:20   0.00   41.9    93    0.0     0     0.0   872.6    0.00 
 325    5:30   0.00   41.8    93    1.8   206     2.6   872.9    0.00 
 325    5:40   0.00   42.0    94    2.0   214     2.4   872.9    0.00 
 325    5:50   0.00   42.7    94    1.1   184     2.3   872.8    0.00 
 325    6:00   0.00   42.1    93    0.9    96     2.0   872.8    0.00 
 325    6:10   0.00   41.2    93    2.0   307     3.7   872.8    0.00 
 325    6:20   0.00   40.8    94    0.3   302     2.1   872.7    0.00 
 325    6:30   0.00   41.1    94    0.4   120     1.6   873.0    0.00 
 325    6:40   0.00   41.3    94    0.6    69     1.9   873.2    0.00 
 325    6:50   0.00   42.7    94    0.8    69     1.3   873.4    0.00 
 325    7:00   0.00   43.2    94    0.8    69     1.2   873.5    0.00 
 325    7:10   0.00   43.6    94    0.6    69     1.9   873.5    0.00 
 325    7:20   0.01   42.9    94    0.7    68     1.7   873.7    0.00 
 325    7:30   0.01   43.3    94    2.0    89     2.8   873.5    0.00 
 325    7:40   0.03   43.9    94    0.8    94     2.3   873.4    0.00 
 325    7:50   0.04   43.7    93    0.1    90     0.7   873.4    0.00 
 325    8:00   0.05   43.7    93    0.3   268     1.6   873.6    0.00 
 325    8:10   0.05   44.5    94    0.6   259     1.3   873.7    0.00 
 325    8:20   0.06   45.2    93    1.4    99     2.2   873.7    0.00 
 325    8:30   0.07   46.0    93    0.7    99     2.3   873.7    0.00 
 325    8:40   0.09   46.4    93    0.2   221     0.9   873.7    0.00 
 325    8:50   0.10   47.2    92    0.1   181     0.8   873.9    0.00 
 325    9:00   0.12   47.9    91    1.5   142     3.3   873.8    0.00 
 325    9:10   0.16   48.4    90    0.9   163     2.6   873.9    0.00 
 325    9:20   0.28   50.6    87    0.8   173     1.7   873.9    0.00 
 325    9:30   0.14   51.9    80    0.1   288     1.3   873.9    0.00 
 325    9:40   0.13   51.8    77    0.0   246     0.4   873.7    0.00 
 325    9:50   0.17   52.7    75    0.7    54     2.5   873.6    0.00 
 325   10:00   0.27   53.0    74    1.6    37     3.1   873.5    0.00 
 325   10:10   0.31   53.9    71    1.8   346     3.1   873.5    0.00 
 325   10:20   0.40   55.5    67    1.0   324     3.3   873.6    0.00 
 325   10:30   0.40   57.5    61    0.9   286     2.4   873.5    0.00 
 325   10:40   0.38   59.2    58    1.0   118     2.4   873.4    0.00 
 325   10:50   0.39   58.7    59    1.0   280     2.4   873.4    0.00 
 325   11:00   0.21   58.5    59    0.7   314     2.3   873.2    0.00 
 325   11:10   0.38   58.4    59    0.9   339     2.5   873.2    0.00 
 325   11:20   0.36   60.0    56    1.6   124     3.5   873.0    0.00 
 325   11:30   0.28   59.4    57    1.4   309     3.4   872.9    0.00 
 325   11:40   0.33   60.0    56    1.2   287     3.4   872.8    0.00 
 325   11:50   0.25   61.5    51    0.8   259     2.0   872.7    0.00 
 325   12:00   0.21   60.7    53    0.5   294     1.6   872.6    0.00 
 325   12:10   0.36   62.3    52    0.2   321     0.9   872.5    0.00 
 325   12:20   0.47   64.9    47    1.3   211     3.5   872.3    0.00 
 325   12:30   0.45   63.9    46    1.4   286     3.1   872.4    0.00 
 325   12:40   0.45   64.2    46    2.1    32     5.1   872.3    0.00 
 325   12:50   0.34   64.8    45    1.1   329     2.7   872.3    0.00 
 325   13:00   0.32   63.8    46    0.4   306     2.6   872.2    0.00 
 325   13:10   0.33   65.0    45    1.1    94     2.6   872.2    0.00 
 325   13:20   0.37   65.9    44    0.7   145     2.0   872.1    0.00 
 325   13:30   0.40   66.6    42    1.4   238     3.9   872.0    0.00 
 325   13:40   0.37   65.7    41    1.6   295     3.9   872.0    0.00 
 325   13:50   0.30   66.0    40    0.7   334     2.9   871.8    0.00 
 325   14:00   0.33   67.0    39    0.6    24     2.3   871.6    0.00 
 325   14:10   0.21   67.0    39    1.6    62     2.9   871.5    0.00 
 325   14:20   0.22   66.2    41    1.2    82     2.6   871.5    0.00 
 325   14:30   0.31   66.9    40    0.5    61     2.0   871.5    0.00 
 325   14:40   0.30   68.1    38    0.7    36     2.3   871.5    0.00 
 325   14:50   0.19   67.4    39    0.8   345     1.9   871.5    0.00 
 325   15:00   0.23   66.8    41    0.5   339     1.7   871.5    0.00 
 325   15:10   0.25   68.3    37    0.8   359     2.0   871.5    0.00 
 325   15:20   0.21   68.0    38    1.2    12     2.4   871.5    0.00 
 325   15:30   0.15   67.5    39    1.6    23     2.4   871.4    0.00 
 325   15:40   0.15   67.0    43    0.9    36     1.8   871.4    0.00 
 325   15:50   0.14   67.6    44    0.0    31     0.5   871.3    0.00 
 325   16:00   0.13   68.0    41    0.0     0     0.0   871.4    0.00 
 325   16:10   0.12   68.0    37    1.2    48     3.5   871.3    0.00 
 325   16:20   0.06   66.1    42    2.0    10     3.1   871.2    0.00 
 325   16:30   0.03   63.7    46    2.0     7     2.9   871.2    0.00 
 325   16:40   0.01   62.3    48    3.5    53     4.8   871.0    0.00 
 325   16:50   0.00   60.5    51    1.9    68     3.1   870.8    0.00 
 325   17:00   0.00   58.4    58    1.0   110     3.2   870.7    0.00 
 325   17:10   0.00   58.8    59    1.9   132     2.9   870.7    0.00 
 325   17:20   0.00   58.2    58    2.6   141     3.9   870.7    0.00 
 325   17:30   0.00   58.4    57    3.1   150     4.4   870.8    0.00 
 325   17:40   0.00   57.8    58    2.4   164     2.9   871.0    0.00 
 325   17:50   0.00   58.5    55    1.5   134     2.4   871.0    0.00 
 325   18:00   0.00   54.2    63    0.1   101     0.9   871.1    0.00 
 325   18:10   0.00   53.9    66    2.0   230     4.2   871.1    0.00 
 325   18:20   0.00   56.6    60    2.6   210     3.5   871.2    0.00 
 325   18:30   0.00   53.2    67    0.3   234     2.9   871.4    0.00 
 325   18:40   0.00   53.4    67    2.0   334     5.4   871.5    0.00 
 325   18:50   0.00   53.1    66    2.7    24     3.4   871.7    0.00 
 325   19:00   0.00   51.3    70    1.9    94     3.7   871.8    0.00 
 325   19:10   0.00   51.5    70    2.0   138     3.6   871.9    0.00 
 325   19:20   0.00   51.9    68    1.5   219     2.5   872.1    0.00 
 325   19:30   0.00   48.8    75    0.9   172     1.7   872.2    0.00 

Return to Sparks, Nevada, UNR Ag Experiment Farm graphs page.


Western Regional Climate Center,wrcc@dri.edu